Terminal Aerodrome Forecast
Issued by NWS

Home | Current Version | Previous Version | Text Only | Print | Product List | Glossary On
Versions: 1 2 3 4 5 6 7 8 9 10 11 12 13 14 15 16 17 18 19 20 21 22 23 24 25 26 27 28 29 30 31 32 33 34 35 36 37 38 39 40 41 42 43 44 45 46
000
FTUS43 KGRR 191145
TAFAZO
TAF
KAZO 191145Z 1912/2012 01010G18KT P6SM -RA OVC015
     FM191600 02012G23KT P6SM -RA OVC010
     FM192100 02015G28KT P6SM OVC025
     FM200000 01013KT P6SM BKN040
     FM200300 03012G24KT P6SM BKN060 WS020/04045KT=

USA.gov is the U.S. government's official web portal to all federal, state and local government web resources and services.